createdAt,value
2023-04-18T00:00:38.107Z,8.20
2023-04-18T00:03:05.092Z,8.20
2023-04-18T00:05:32.067Z,8.20
2023-04-18T00:07:58.923Z,8.20
2023-04-18T00:10:25.788Z,8.10
2023-04-18T00:12:52.530Z,8.10
2023-04-18T00:15:21.438Z,8.10
2023-04-18T00:17:50.371Z,8.10
2023-04-18T00:20:19.477Z,8.10
2023-04-18T00:22:46.724Z,8.00
2023-04-18T00:25:13.608Z,8.00
2023-04-18T00:27:41.200Z,8.00
2023-04-18T00:30:10.808Z,8.00
2023-04-18T00:32:37.921Z,8.00
2023-04-18T00:35:07.044Z,8.00
2023-04-18T00:37:37.135Z,7.90
2023-04-18T00:40:08.843Z,7.90
2023-04-18T00:42:38.093Z,7.90
2023-04-18T00:45:06.005Z,7.90
2023-04-18T00:48:16.941Z,7.90
2023-04-18T00:50:43.902Z,7.90
2023-04-18T00:53:13.278Z,7.90
2023-04-18T00:55:40.634Z,7.90
2023-04-18T00:58:08.208Z,7.80
2023-04-18T01:00:34.959Z,7.80
2023-04-18T01:03:08.362Z,7.80
2023-04-18T01:05:36.273Z,7.80
2023-04-18T01:08:04.244Z,7.80
2023-04-18T01:10:37.478Z,7.80
2023-04-18T01:13:11.082Z,7.80
2023-04-18T01:15:39.875Z,7.80
2023-04-18T01:18:08.901Z,7.80
2023-04-18T01:20:36.687Z,7.70
2023-04-18T01:23:03.798Z,7.70
2023-04-18T01:25:30.600Z,7.70
2023-04-18T01:27:58.763Z,7.80
2023-04-18T01:30:27.604Z,7.70
2023-04-18T01:32:54.454Z,7.70
2023-04-18T01:35:21.486Z,7.70
2023-04-18T01:37:48.217Z,7.70
2023-04-18T01:40:17.325Z,7.70
2023-04-18T01:42:46.515Z,7.70
2023-04-18T01:45:15.875Z,7.60
2023-04-18T01:47:46.320Z,7.60
2023-04-18T01:50:13.150Z,7.60
2023-04-18T01:52:40.007Z,7.50
2023-04-18T01:55:06.929Z,7.60
2023-04-18T01:57:38.296Z,7.60
2023-04-18T02:00:06.508Z,7.60
2023-04-18T02:02:43.682Z,7.50
2023-04-18T02:05:13.093Z,7.60
2023-04-18T02:07:42.773Z,7.50
2023-04-18T02:10:11.830Z,7.50
2023-04-18T02:12:38.965Z,7.50
2023-04-18T02:15:06.573Z,7.50
2023-04-18T02:17:36.328Z,7.50
2023-04-18T02:20:08.051Z,7.40
2023-04-18T02:22:36.375Z,7.40
2023-04-18T02:25:08.318Z,7.40
2023-04-18T02:27:35.119Z,7.40
2023-04-18T02:30:01.948Z,7.40
2023-04-18T02:32:28.785Z,7.40
2023-04-18T02:34:55.661Z,7.40
2023-04-18T02:37:22.335Z,7.40
2023-04-18T02:39:51.437Z,7.40
2023-04-18T02:42:18.209Z,7.40
2023-04-18T02:44:44.975Z,7.40
2023-04-18T02:47:11.715Z,7.40
2023-04-18T02:49:42.351Z,7.50
2023-04-18T02:52:11.606Z,7.40
2023-04-18T02:54:40.914Z,7.40
2023-04-18T02:57:12.891Z,7.40
2023-04-18T02:59:39.617Z,7.40
2023-04-18T03:02:08.660Z,7.50
2023-04-18T03:04:38.906Z,7.50
2023-04-18T03:07:08.257Z,7.50
2023-04-18T03:09:37.680Z,7.50
2023-04-18T03:12:13.792Z,7.50
2023-04-18T03:14:44.311Z,7.60
2023-04-18T03:17:12.733Z,7.50
2023-04-18T03:19:46.314Z,7.50
2023-04-18T03:22:15.453Z,7.50
2023-04-18T03:24:50.042Z,7.50
2023-04-18T03:27:17.907Z,7.50
2023-04-18T03:29:45.779Z,7.50
2023-04-18T03:32:13.400Z,7.50
2023-04-18T03:34:40.467Z,7.50
2023-04-18T03:37:08.646Z,7.50
2023-04-18T03:39:41.113Z,7.50
2023-04-18T03:42:08.185Z,7.50
2023-04-18T03:44:35.501Z,7.50
2023-04-18T03:47:03.752Z,7.50
2023-04-18T03:49:32.425Z,7.50
2023-04-18T03:51:59.407Z,7.50
2023-04-18T03:54:28.564Z,7.50
2023-04-18T03:56:55.978Z,7.50
2023-04-18T03:59:23.538Z,7.50
2023-04-18T04:01:51.012Z,7.50
2023-04-18T04:04:19.196Z,7.50
2023-04-18T04:06:48.664Z,7.40
2023-04-18T04:09:16.622Z,7.40
2023-04-18T04:11:50.659Z,7.50
2023-04-18T04:14:19.955Z,7.50
2023-04-18T04:16:49.365Z,7.50
2023-04-18T04:19:17.342Z,7.50
2023-04-18T04:21:54.926Z,7.40
2023-04-18T04:24:22.636Z,7.40
2023-04-18T04:26:53.947Z,7.50
2023-04-18T04:29:23.858Z,7.40
2023-04-18T04:31:54.272Z,7.40
2023-04-18T04:34:29.152Z,7.30
2023-04-18T04:37:00.822Z,7.40
2023-04-18T04:39:29.204Z,7.40
2023-04-18T04:42:19.730Z,7.40
2023-04-18T04:45:09.631Z,7.40
2023-04-18T04:47:38.591Z,7.30
2023-04-18T04:50:07.697Z,7.30
2023-04-18T04:52:34.464Z,7.30
2023-04-18T04:55:02.727Z,7.30
2023-04-18T04:57:29.527Z,7.30
2023-04-18T04:59:56.335Z,7.30
2023-04-18T05:02:23.618Z,7.20
2023-04-18T05:04:50.459Z,7.20
2023-04-18T05:07:19.658Z,7.30
2023-04-18T05:09:46.435Z,7.30
2023-04-18T05:12:15.381Z,7.30
2023-04-18T05:14:42.087Z,7.30
2023-04-18T05:17:08.945Z,7.30
2023-04-18T05:19:35.728Z,7.30
2023-04-18T05:22:03.073Z,7.40
2023-04-18T05:24:31.534Z,7.40
2023-04-18T05:26:58.328Z,7.40
2023-04-18T05:29:25.720Z,7.40
2023-04-18T05:31:52.552Z,7.50
2023-04-18T05:34:19.311Z,7.50
2023-04-18T05:36:48.467Z,7.50
2023-04-18T05:39:15.236Z,7.60
2023-04-18T05:41:44.559Z,7.60
2023-04-18T05:44:13.643Z,7.60
2023-04-18T05:46:40.703Z,7.60
2023-04-18T05:49:07.628Z,7.60
2023-04-18T05:51:34.449Z,7.70
2023-04-18T05:54:05.748Z,7.80
2023-04-18T06:00:34.957Z,7.90
2023-04-18T06:03:02.090Z,7.80
2023-04-18T06:05:29.352Z,7.70
2023-04-18T06:07:56.311Z,7.60
2023-04-18T06:14:22.676Z,7.70
2023-04-18T06:16:52.198Z,7.70
2023-04-18T06:19:19.004Z,7.80
2023-04-18T06:21:45.995Z,7.80
2023-04-18T06:24:15.527Z,7.90
2023-04-18T06:26:42.437Z,8.00
2023-04-18T06:29:11.860Z,8.20
2023-04-18T06:31:38.722Z,8.30
2023-04-18T06:34:06.374Z,8.30
2023-04-18T06:36:33.405Z,8.40
2023-04-18T06:39:00.397Z,8.50
2023-04-18T06:41:29.856Z,8.60
2023-04-18T06:44:04.114Z,8.60
2023-04-18T06:46:34.476Z,8.70
2023-04-18T06:49:03.776Z,8.80
2023-04-18T06:51:31.548Z,9.00
2023-04-18T06:53:58.383Z,9.00
2023-04-18T06:56:28.304Z,9.00
2023-04-18T06:58:55.194Z,9.00
2023-04-18T07:01:22.142Z,9.10
2023-04-18T07:03:49.082Z,9.10
2023-04-18T07:06:16.123Z,9.20
2023-04-18T07:08:42.997Z,9.30
2023-04-18T07:11:11.502Z,9.50
2023-04-18T07:13:40.602Z,9.60
2023-04-18T07:16:09.294Z,9.60
2023-04-18T07:18:40.941Z,9.70
2023-04-18T07:21:08.109Z,9.70
2023-04-18T07:23:38.227Z,9.70
2023-04-18T07:26:09.513Z,9.60
2023-04-18T07:28:38.546Z,9.70
2023-04-18T07:31:05.619Z,9.90
2023-04-18T07:33:36.730Z,9.90
2023-04-18T07:36:04.549Z,10.00
2023-04-18T07:38:33.604Z,10.00
2023-04-18T07:41:01.782Z,10.00
2023-04-18T07:43:32.605Z,10.00
2023-04-18T07:45:59.748Z,10.00
2023-04-18T07:48:26.948Z,10.10
2023-04-18T07:50:54.517Z,10.20
2023-04-18T07:53:21.687Z,10.30
2023-04-18T07:55:49.431Z,10.50
2023-04-18T07:58:19.498Z,10.60
2023-04-18T08:00:46.672Z,10.70
2023-04-18T08:03:17.126Z,10.80
2023-04-18T08:05:44.358Z,11.00
2023-04-18T08:08:12.732Z,11.10
2023-04-18T08:10:40.123Z,11.20
2023-04-18T08:13:14.769Z,11.20
2023-04-18T08:15:42.074Z,11.10
2023-04-18T08:18:09.448Z,11.00
2023-04-18T08:20:37.317Z,11.00
2023-04-18T08:23:10.407Z,10.80
2023-04-18T08:25:39.208Z,10.70
2023-04-18T08:28:08.565Z,10.70
2023-04-18T08:30:35.865Z,10.70
2023-04-18T08:33:03.246Z,10.70
2023-04-18T08:35:30.254Z,10.70
2023-04-18T08:38:01.583Z,10.70
2023-04-18T08:40:31.174Z,10.60
2023-04-18T08:43:04.970Z,10.60
2023-04-18T08:45:34.499Z,10.50
2023-04-18T08:48:03.707Z,10.50
2023-04-18T08:50:31.876Z,10.50
2023-04-18T08:53:03.052Z,10.50
2023-04-18T08:55:30.320Z,10.40
2023-04-18T08:57:59.103Z,10.40
2023-04-18T09:00:27.594Z,10.40
2023-04-18T09:02:56.932Z,10.50
2023-04-18T09:05:26.778Z,10.50
2023-04-18T09:07:56.146Z,10.60
2023-04-18T09:10:30.930Z,10.70
2023-04-18T09:12:58.755Z,10.80
2023-04-18T09:15:27.297Z,10.90
2023-04-18T09:17:58.845Z,11.00
2023-04-18T09:20:42.449Z,11.10
2023-04-18T09:23:23.748Z,11.10
2023-04-18T09:25:52.319Z,11.10
2023-04-18T09:28:25.870Z,11.20
2023-04-18T09:30:57.459Z,11.30
2023-04-18T09:33:29.855Z,11.30
2023-04-18T09:36:19.498Z,11.40
2023-04-18T09:38:47.476Z,11.50
2023-04-18T09:41:21.612Z,11.70
2023-04-18T09:44:07.785Z,11.90
2023-04-18T09:46:34.841Z,12.20
2023-04-18T09:49:02.223Z,12.60
2023-04-18T09:51:31.633Z,12.80
2023-04-18T09:53:59.364Z,12.90
2023-04-18T09:56:32.004Z,12.90
2023-04-18T09:59:47.796Z,13.00
2023-04-18T10:02:21.000Z,13.20
2023-04-18T10:04:51.108Z,13.40
2023-04-18T10:07:18.409Z,13.40
2023-04-18T10:09:51.333Z,13.30
2023-04-18T10:12:21.036Z,13.20
2023-04-18T10:14:50.963Z,13.20
2023-04-18T10:17:20.061Z,13.30
2023-04-18T10:20:06.504Z,13.40
2023-04-18T10:22:34.372Z,13.50
2023-04-18T10:25:01.639Z,13.40
2023-04-18T10:27:58.173Z,13.30
2023-04-18T10:30:40.471Z,13.30
2023-04-18T10:34:00.692Z,13.30
2023-04-18T10:36:33.782Z,13.50
2023-04-18T10:39:21.686Z,13.60
2023-04-18T10:41:51.063Z,13.70
2023-04-18T10:44:19.976Z,13.70
2023-04-18T10:46:55.511Z,13.90
2023-04-18T10:49:26.889Z,14.00
2023-04-18T10:51:58.481Z,14.10
2023-04-18T10:54:51.136Z,14.20
2023-04-18T11:01:12.781Z,14.40
2023-04-18T11:03:39.808Z,14.30
2023-04-18T11:06:06.930Z,14.20
2023-04-18T11:08:34.158Z,14.10
2023-04-18T11:11:06.900Z,13.90
2023-04-18T11:13:36.848Z,13.90
2023-04-18T11:16:04.353Z,14.00
2023-04-18T11:18:41.947Z,14.10
2023-04-18T11:21:08.793Z,14.10
2023-04-18T11:23:35.732Z,14.10
2023-04-18T11:26:07.401Z,14.10
2023-04-18T11:28:34.324Z,14.20
2023-04-18T11:31:02.719Z,14.20
2023-04-18T11:33:29.869Z,14.30
2023-04-18T11:35:59.473Z,14.20
2023-04-18T11:38:37.899Z,14.40
2023-04-18T11:41:04.938Z,14.40
2023-04-18T11:43:31.846Z,14.30
2023-04-18T11:46:00.080Z,14.30
2023-04-18T11:48:36.744Z,14.30
2023-04-18T11:51:03.785Z,14.30
2023-04-18T11:53:37.699Z,14.40
2023-04-18T11:56:05.647Z,14.40
2023-04-18T11:58:36.665Z,14.40
2023-04-18T12:01:16.717Z,14.50
2023-04-18T12:04:08.043Z,14.50
2023-04-18T12:06:53.395Z,14.70
2023-04-18T12:09:24.849Z,14.80
2023-04-18T12:11:59.523Z,14.70
2023-04-18T12:14:26.815Z,14.70
2023-04-18T12:16:53.997Z,14.70
2023-04-18T12:19:32.666Z,14.80
2023-04-18T12:22:01.407Z,14.70
2023-04-18T12:24:32.287Z,14.60
2023-04-18T12:26:59.668Z,14.40
2023-04-18T12:29:29.612Z,14.40
2023-04-18T12:31:56.713Z,14.50
2023-04-18T12:34:23.777Z,14.40
2023-04-18T12:36:51.007Z,14.50
2023-04-18T12:39:20.259Z,14.50
2023-04-18T12:41:50.008Z,14.50
2023-04-18T12:44:19.107Z,14.50
2023-04-18T12:46:46.089Z,14.40
2023-04-18T12:49:13.054Z,14.50
2023-04-18T12:51:40.619Z,14.40
2023-04-18T12:54:09.852Z,14.30
2023-04-18T12:56:36.794Z,14.10
2023-04-18T12:59:03.745Z,14.00
2023-04-18T13:01:30.873Z,14.00
2023-04-18T13:04:08.805Z,14.00
2023-04-18T13:06:41.837Z,13.90
2023-04-18T13:09:09.242Z,13.90
2023-04-18T13:11:36.343Z,13.90
2023-04-18T13:14:03.320Z,13.80
2023-04-18T13:16:32.720Z,13.80
2023-04-18T13:18:59.595Z,13.80
2023-04-18T13:26:16.077Z,13.80
2023-04-18T13:28:43.036Z,13.80
2023-04-18T13:31:09.992Z,13.90
2023-04-18T13:33:36.971Z,13.90
2023-04-18T13:36:04.110Z,13.90
2023-04-18T13:38:30.968Z,13.80
2023-04-18T13:41:10.891Z,13.80
2023-04-18T13:43:38.937Z,13.90
2023-04-18T13:46:08.013Z,14.00
2023-04-18T13:48:35.081Z,14.00
2023-04-18T13:51:06.851Z,14.10
2023-04-18T13:53:36.323Z,14.10
2023-04-18T13:56:03.300Z,14.10
2023-04-18T13:58:30.164Z,14.10
2023-04-18T14:00:57.020Z,14.10
2023-04-18T14:03:24.122Z,14.00
2023-04-18T14:05:51.346Z,14.10
2023-04-18T14:08:18.331Z,14.10
2023-04-18T14:10:45.109Z,14.10
2023-04-18T14:13:12.156Z,14.20
2023-04-18T14:15:39.170Z,14.20
2023-04-18T14:18:06.511Z,14.20
2023-04-18T14:20:34.725Z,14.30
2023-04-18T14:23:02.104Z,14.40
2023-04-18T14:25:30.163Z,14.40
2023-04-18T14:28:12.574Z,14.40
2023-04-18T14:30:40.222Z,14.50
2023-04-18T14:33:09.758Z,14.40
2023-04-18T14:35:39.054Z,14.40
2023-04-18T14:38:05.973Z,14.40
2023-04-18T14:40:34.993Z,14.30
2023-04-18T14:43:02.220Z,14.30
2023-04-18T14:45:32.889Z,14.30
2023-04-18T14:48:00.847Z,14.30
2023-04-18T14:50:30.849Z,14.30
2023-04-18T14:52:57.899Z,14.30
2023-04-18T14:55:27.267Z,14.30
2023-04-18T14:57:54.774Z,14.30
2023-04-18T15:00:23.890Z,14.20
2023-04-18T15:02:50.991Z,14.20
2023-04-18T15:05:18.696Z,14.20
2023-04-18T15:07:46.007Z,14.20
2023-04-18T15:10:13.693Z,14.20
2023-04-18T15:12:41.660Z,14.20
2023-04-18T15:15:09.002Z,14.20
2023-04-18T15:17:35.947Z,14.20
2023-04-18T15:20:05.517Z,14.10
2023-04-18T15:22:32.590Z,14.10
2023-04-18T15:24:59.548Z,14.10
2023-04-18T15:27:28.686Z,14.10
2023-04-18T15:29:56.209Z,14.10
2023-04-18T15:32:23.302Z,14.10
2023-04-18T15:34:52.894Z,14.10
2023-04-18T15:37:20.084Z,14.10
2023-04-18T15:39:46.980Z,14.10
2023-04-18T15:42:13.856Z,14.10
2023-04-18T15:44:40.715Z,14.10
2023-04-18T15:47:10.004Z,14.10
2023-04-18T15:49:39.031Z,14.00
2023-04-18T15:52:07.010Z,14.00
2023-04-18T15:54:35.245Z,14.00
2023-04-18T15:57:02.524Z,14.00
2023-04-18T15:59:31.731Z,14.00
2023-04-18T16:01:58.770Z,13.90
2023-04-18T16:04:25.989Z,13.90
2023-04-18T16:06:52.999Z,13.90
2023-04-18T16:09:22.426Z,13.90
2023-04-18T16:11:49.362Z,13.90
2023-04-18T16:14:18.481Z,13.90
2023-04-18T16:16:45.505Z,13.90
2023-04-18T16:19:12.518Z,13.90
2023-04-18T16:21:42.345Z,13.90
2023-04-18T16:24:09.282Z,13.90
2023-04-18T16:26:36.247Z,13.80
2023-04-18T16:29:03.183Z,13.80
2023-04-18T16:31:30.143Z,13.80
2023-04-18T16:33:57.139Z,13.80
2023-04-18T16:36:26.299Z,13.70
2023-04-18T16:38:53.460Z,13.70
2023-04-18T16:41:20.447Z,13.70
2023-04-18T16:43:47.339Z,13.70
2023-04-18T16:46:14.653Z,13.70
2023-04-18T16:48:41.768Z,13.60
2023-04-18T16:51:10.743Z,13.60
2023-04-18T16:53:37.600Z,13.60
2023-04-18T16:56:04.711Z,13.60
2023-04-18T16:58:33.770Z,13.50
2023-04-18T17:01:02.280Z,13.50
2023-04-18T17:03:29.291Z,13.50
2023-04-18T17:05:56.297Z,13.50
2023-04-18T17:08:25.815Z,13.50
2023-04-18T17:10:52.920Z,13.40
2023-04-18T17:13:20.097Z,13.40
2023-04-18T17:15:51.447Z,13.40
2023-04-18T17:18:20.903Z,13.40
2023-04-18T17:20:48.117Z,13.30
2023-04-18T17:23:15.081Z,13.20
2023-04-18T17:25:41.936Z,13.20
2023-04-18T17:28:08.821Z,13.20
2023-04-18T17:30:39.963Z,13.20
2023-04-18T17:33:11.510Z,13.10
2023-04-18T17:35:41.580Z,13.10
2023-04-18T17:38:10.570Z,13.10
2023-04-18T17:40:37.650Z,13.10
2023-04-18T17:43:04.531Z,13.00
2023-04-18T17:45:36.231Z,13.00
2023-04-18T17:48:03.582Z,12.90
2023-04-18T17:50:30.505Z,12.90
2023-04-18T17:53:01.832Z,12.80
2023-04-18T17:55:28.965Z,12.80
2023-04-18T17:57:56.073Z,12.80
2023-04-18T18:00:23.152Z,12.70
2023-04-18T18:02:50.224Z,12.70
2023-04-18T18:05:19.640Z,12.60
2023-04-18T18:07:47.663Z,12.60
2023-04-18T18:10:22.300Z,12.60
2023-04-18T18:12:54.157Z,12.60
2023-04-18T18:15:21.180Z,12.50
2023-04-18T18:17:49.808Z,12.50
2023-04-18T18:20:17.755Z,12.40
2023-04-18T18:22:44.949Z,12.40
2023-04-18T18:25:11.891Z,12.40
2023-04-18T18:27:39.084Z,12.30
2023-04-18T18:30:06.912Z,12.30
2023-04-18T18:32:33.909Z,12.20
2023-04-18T18:35:01.775Z,12.20
2023-04-18T18:37:28.883Z,12.10
2023-04-18T18:39:59.886Z,12.10
2023-04-18T18:42:29.362Z,12.10
2023-04-18T18:44:56.485Z,12.10
2023-04-18T18:47:25.597Z,12.00
2023-04-18T18:49:52.640Z,12.00
2023-04-18T18:52:19.702Z,11.90
2023-04-18T18:54:46.687Z,11.90
2023-04-18T18:57:15.957Z,11.90
2023-04-18T18:59:43.382Z,11.80
2023-04-18T19:02:10.490Z,11.80
2023-04-18T19:04:37.823Z,11.80
2023-04-18T19:07:05.931Z,11.70
2023-04-18T19:09:32.993Z,11.70
2023-04-18T19:11:59.990Z,11.70
2023-04-18T19:14:27.109Z,11.70
2023-04-18T19:16:55.811Z,11.60
2023-04-18T19:19:22.825Z,11.60
2023-04-18T19:21:50.099Z,11.60
2023-04-18T19:24:17.958Z,11.60
2023-04-18T19:26:44.954Z,11.50
2023-04-18T19:29:14.775Z,11.50
2023-04-18T19:31:43.532Z,11.40
2023-04-18T19:34:11.848Z,11.30
2023-04-18T19:36:38.964Z,11.20
2023-04-18T19:39:08.080Z,11.20
2023-04-18T19:41:35.047Z,11.20
2023-04-18T19:44:02.266Z,11.10
2023-04-18T19:46:29.215Z,11.10
2023-04-18T19:48:58.447Z,11.00
2023-04-18T19:51:27.658Z,10.90
2023-04-18T19:53:55.495Z,10.90
2023-04-18T19:56:22.608Z,10.90
2023-04-18T19:58:51.937Z,10.80
2023-04-18T20:01:23.693Z,10.70
2023-04-18T20:03:53.978Z,10.70
2023-04-18T20:06:21.055Z,10.60
2023-04-18T20:08:51.032Z,10.60
2023-04-18T20:11:18.000Z,10.60
2023-04-18T20:13:47.178Z,10.50
2023-04-18T20:16:14.243Z,10.40
2023-04-18T20:18:44.274Z,10.40
2023-04-18T20:21:11.256Z,10.30
2023-04-18T20:23:38.273Z,10.30
2023-04-18T20:26:05.092Z,10.30
2023-04-18T20:28:31.867Z,10.30
2023-04-18T20:30:59.172Z,10.20
2023-04-18T20:33:25.983Z,10.20
2023-04-18T20:35:54.630Z,10.20
2023-04-18T20:38:25.985Z,10.20
2023-04-18T20:40:54.063Z,10.10
2023-04-18T20:43:21.356Z,10.10
2023-04-18T20:45:51.029Z,10.10
2023-04-18T20:48:18.109Z,10.00
2023-04-18T20:50:50.746Z,10.00
2023-04-18T20:53:21.071Z,9.90
2023-04-18T20:55:48.440Z,9.90
2023-04-18T20:58:15.291Z,9.90
2023-04-18T21:00:42.086Z,9.80
2023-04-18T21:03:08.952Z,9.80
2023-04-18T21:05:35.985Z,9.70
2023-04-18T21:08:03.114Z,9.80
2023-04-18T21:10:29.972Z,9.80
2023-04-18T21:12:56.726Z,9.70
2023-04-18T21:15:23.742Z,9.70
2023-04-18T21:17:52.971Z,9.70
2023-04-18T21:20:22.312Z,9.70
2023-04-18T21:22:49.046Z,9.70
2023-04-18T21:25:18.589Z,9.70
2023-04-18T21:27:45.448Z,9.70
2023-04-18T21:30:12.425Z,9.70
2023-04-18T21:32:39.184Z,9.70
2023-04-18T21:35:06.153Z,9.60
2023-04-18T21:37:33.093Z,9.50
2023-04-18T21:40:02.739Z,9.50
2023-04-18T21:42:29.445Z,9.40
2023-04-18T21:44:56.157Z,9.40
2023-04-18T21:47:25.844Z,9.40
2023-04-18T21:49:52.777Z,9.30
2023-04-18T21:52:21.904Z,9.30
2023-04-18T21:54:51.398Z,9.30
2023-04-18T21:57:18.137Z,9.20
2023-04-18T21:59:44.872Z,9.20
2023-04-18T22:02:12.491Z,9.10
2023-04-18T22:04:42.556Z,9.10
2023-04-18T22:07:09.503Z,9.10
2023-04-18T22:09:38.768Z,9.10
2023-04-18T22:12:05.654Z,9.00
2023-04-18T22:14:32.460Z,8.90
2023-04-18T22:16:59.308Z,8.80
2023-04-18T22:19:29.306Z,8.80
2023-04-18T22:21:58.554Z,8.80
2023-04-18T22:24:27.642Z,8.70
2023-04-18T22:26:54.421Z,8.60
2023-04-18T22:29:21.167Z,8.60
2023-04-18T22:31:47.930Z,8.60
2023-04-18T22:34:14.984Z,8.60
2023-04-18T22:36:42.767Z,8.50
2023-04-18T22:39:49.197Z,8.50
2023-04-18T22:42:15.997Z,8.50
2023-04-18T22:44:45.394Z,8.50
2023-04-18T22:47:14.623Z,8.50
2023-04-18T22:49:42.016Z,8.40
2023-04-18T22:52:08.734Z,8.40
2023-04-18T22:54:40.619Z,8.30
2023-04-18T22:57:07.563Z,8.20
2023-04-18T22:59:34.405Z,8.20
2023-04-18T23:02:03.653Z,8.20
2023-04-18T23:04:32.891Z,8.20
2023-04-18T23:06:59.778Z,8.20
2023-04-18T23:09:27.101Z,8.30
2023-04-18T23:11:53.878Z,8.30
2023-04-18T23:14:21.390Z,8.30
2023-04-18T23:16:50.757Z,8.30
2023-04-18T23:19:17.499Z,8.20
2023-04-18T23:21:44.262Z,8.20
2023-04-18T23:24:13.267Z,8.20
2023-04-18T23:26:40.136Z,8.20
2023-04-18T23:29:06.864Z,8.20
2023-04-18T23:31:36.016Z,8.20
2023-04-18T23:34:05.446Z,8.30
2023-04-18T23:36:32.981Z,8.30
2023-04-18T23:38:59.737Z,8.30
2023-04-18T23:41:26.509Z,8.30
2023-04-18T23:43:53.285Z,8.30
2023-04-18T23:46:20.114Z,8.20
2023-04-18T23:48:46.927Z,8.20
2023-04-18T23:51:13.677Z,8.20
2023-04-18T23:53:40.497Z,8.20
2023-04-18T23:56:08.337Z,8.20
2023-04-18T23:58:35.401Z,8.20
